createdAt,value
2022-08-07T00:02:40.573Z,16.50
2022-08-07T00:05:30.776Z,16.40
2022-08-07T00:08:17.070Z,16.40
2022-08-07T00:11:06.381Z,16.30
2022-08-07T00:13:53.013Z,16.40
2022-08-07T00:16:41.615Z,16.30
2022-08-07T00:19:34.130Z,16.30
2022-08-07T00:22:35.888Z,16.20
2022-08-07T00:25:24.515Z,16.20
2022-08-07T00:28:15.504Z,16.20
2022-08-07T00:31:05.875Z,16.20
2022-08-07T00:33:52.660Z,16.20
2022-08-07T00:36:43.047Z,16.10
2022-08-07T00:39:30.170Z,16.00
2022-08-07T00:42:17.388Z,15.90
2022-08-07T00:45:06.819Z,15.90
2022-08-07T00:48:07.951Z,15.90
2022-08-07T00:50:57.402Z,15.90
2022-08-07T00:53:50.780Z,15.80
2022-08-07T00:56:42.977Z,15.80
2022-08-07T00:59:35.695Z,15.80
2022-08-07T01:02:29.252Z,15.70
2022-08-07T01:05:19.294Z,15.70
2022-08-07T01:08:09.086Z,15.70
2022-08-07T01:10:56.699Z,15.70
2022-08-07T01:13:56.028Z,15.60
2022-08-07T01:16:43.323Z,15.60
2022-08-07T01:19:38.381Z,15.60
2022-08-07T01:22:29.472Z,15.60
2022-08-07T01:25:53.515Z,15.60
2022-08-07T01:28:24.184Z,15.50
2022-08-07T01:31:15.289Z,15.50
2022-08-07T01:34:04.112Z,15.40
2022-08-07T01:36:58.099Z,15.40
2022-08-07T01:39:47.194Z,15.40
2022-08-07T01:42:40.234Z,15.30
2022-08-07T01:45:42.833Z,15.40
2022-08-07T01:48:33.642Z,15.40
2022-08-07T01:51:24.474Z,15.30
2022-08-07T01:54:32.908Z,15.30
2022-08-07T01:57:29.924Z,15.20
2022-08-07T02:00:28.617Z,15.30
2022-08-07T02:03:21.780Z,15.20
2022-08-07T02:06:31.162Z,15.10
2022-08-07T02:09:33.904Z,15.10
2022-08-07T02:12:32.570Z,15.20
2022-08-07T02:15:23.968Z,15.10
2022-08-07T02:18:14.328Z,15.10
2022-08-07T02:21:06.598Z,15.10
2022-08-07T02:23:53.557Z,15.10
2022-08-07T02:26:41.487Z,15.10
2022-08-07T02:29:31.717Z,15.00
2022-08-07T02:32:23.532Z,15.00
2022-08-07T02:35:20.376Z,14.90
2022-08-07T02:38:31.588Z,14.90
2022-08-07T02:41:21.512Z,14.90
2022-08-07T02:44:08.881Z,14.80
2022-08-07T02:46:59.207Z,14.80
2022-08-07T02:49:58.702Z,14.80
2022-08-07T02:52:49.357Z,14.70
2022-08-07T02:56:02.577Z,14.70
2022-08-07T02:58:48.230Z,14.70
2022-08-07T03:01:40.059Z,14.70
2022-08-07T03:04:29.288Z,14.60
2022-08-07T03:07:17.437Z,14.60
2022-08-07T03:10:09.696Z,14.60
2022-08-07T03:12:56.245Z,14.60
2022-08-07T03:15:55.738Z,14.50
2022-08-07T03:18:44.132Z,14.40
2022-08-07T03:21:32.970Z,14.50
2022-08-07T03:24:27.344Z,14.40
2022-08-07T03:27:15.997Z,14.40
2022-08-07T03:30:17.953Z,14.30
2022-08-07T03:33:07.962Z,14.30
2022-08-07T03:35:54.982Z,14.20
2022-08-07T03:38:44.983Z,14.20
2022-08-07T03:41:42.164Z,14.30
2022-08-07T03:44:35.301Z,14.20
2022-08-07T03:47:22.923Z,14.20
2022-08-07T03:50:10.678Z,14.10
2022-08-07T03:53:00.268Z,14.10
2022-08-07T03:55:58.379Z,14.10
2022-08-07T03:59:08.922Z,14.10
2022-08-07T04:01:58.055Z,14.10
2022-08-07T04:04:45.332Z,14.10
2022-08-07T04:07:41.716Z,14.10
2022-08-07T04:10:29.924Z,14.10
2022-08-07T04:13:19.348Z,14.00
2022-08-07T04:16:07.045Z,14.00
2022-08-07T04:19:03.681Z,14.00
2022-08-07T04:21:59.414Z,14.10
2022-08-07T04:24:52.463Z,14.00
2022-08-07T04:27:43.852Z,14.00
2022-08-07T04:30:39.189Z,14.00
2022-08-07T04:33:31.663Z,14.00
2022-08-07T04:36:22.655Z,14.00
2022-08-07T04:39:12.434Z,14.00
2022-08-07T04:41:59.105Z,14.00
2022-08-07T04:44:54.683Z,14.10
2022-08-07T04:48:07.777Z,14.10
2022-08-07T04:51:05.628Z,14.20
2022-08-07T04:54:06.198Z,14.30
2022-08-07T04:58:13.157Z,14.20
2022-08-07T05:00:14.620Z,14.20
2022-08-07T05:04:00.500Z,14.20
2022-08-07T05:06:43.728Z,14.30
2022-08-07T05:09:46.523Z,14.40
2022-08-07T05:12:39.394Z,14.50
2022-08-07T05:15:37.043Z,14.50
2022-08-07T05:18:29.647Z,14.50
2022-08-07T05:22:00.563Z,14.50
2022-08-07T05:24:30.360Z,14.60
2022-08-07T05:28:03.012Z,14.50
2022-08-07T05:30:30.295Z,14.60
2022-08-07T05:33:20.867Z,14.70
2022-08-07T05:36:12.125Z,14.70
2022-08-07T05:40:05.492Z,14.80
2022-08-07T05:42:17.911Z,14.90
2022-08-07T05:45:28.058Z,15.00
2022-08-07T05:48:31.228Z,15.10
2022-08-07T05:51:22.656Z,15.10
2022-08-07T05:54:30.208Z,15.20
2022-08-07T05:57:18.821Z,15.20
2022-08-07T06:00:08.670Z,15.20
2022-08-07T06:03:06.699Z,15.40
2022-08-07T06:05:56.641Z,15.40
2022-08-07T06:08:46.819Z,15.40
2022-08-07T06:11:34.174Z,15.40
2022-08-07T06:14:21.253Z,15.60
2022-08-07T06:17:10.137Z,15.60
2022-08-07T06:20:03.962Z,15.60
2022-08-07T06:23:02.354Z,15.70
2022-08-07T06:26:01.628Z,15.80
2022-08-07T06:28:50.329Z,15.90
2022-08-07T06:31:49.833Z,16.10
2022-08-07T06:34:37.005Z,16.10
2022-08-07T06:37:44.383Z,16.10
2022-08-07T06:40:35.833Z,16.20
2022-08-07T06:43:25.696Z,16.30
2022-08-07T06:46:14.012Z,16.40
2022-08-07T06:49:04.499Z,16.50
2022-08-07T06:51:53.892Z,16.50
2022-08-07T06:55:34.103Z,16.60
2022-08-07T06:57:57.129Z,16.70
2022-08-07T07:00:46.374Z,16.80
2022-08-07T07:03:48.972Z,16.90
2022-08-07T07:06:39.421Z,17.00
2022-08-07T07:09:47.530Z,17.10
2022-08-07T07:12:41.866Z,17.10
2022-08-07T07:15:41.128Z,17.30
2022-08-07T07:18:47.856Z,17.30
2022-08-07T07:21:40.518Z,17.40
2022-08-07T07:24:57.051Z,17.40
2022-08-07T07:27:55.592Z,17.50
2022-08-07T07:30:52.004Z,17.70
2022-08-07T07:33:40.971Z,17.80
2022-08-07T07:36:32.718Z,17.90
2022-08-07T07:39:22.249Z,18.00
2022-08-07T07:42:13.639Z,18.10
2022-08-07T07:45:06.280Z,18.20
2022-08-07T07:47:54.379Z,18.20
2022-08-07T07:50:43.675Z,18.40
2022-08-07T07:53:34.942Z,18.50
2022-08-07T07:56:29.653Z,18.60
2022-08-07T07:59:19.429Z,18.70
2022-08-07T08:02:35.232Z,18.70
2022-08-07T08:05:23.684Z,18.80
2022-08-07T08:08:36.938Z,19.00
2022-08-07T08:11:47.167Z,19.10
2022-08-07T08:14:31.887Z,19.20
2022-08-07T08:17:57.587Z,19.10
2022-08-07T08:20:34.086Z,19.20
2022-08-07T08:23:41.910Z,19.30
2022-08-07T08:26:50.279Z,19.40
2022-08-07T08:29:54.626Z,19.40
2022-08-07T08:32:48.822Z,19.50
2022-08-07T08:35:39.361Z,19.60
2022-08-07T08:38:41.266Z,19.70
2022-08-07T08:41:58.511Z,19.80
2022-08-07T08:45:04.158Z,19.90
2022-08-07T08:48:01.411Z,20.10
2022-08-07T08:50:56.415Z,20.20
2022-08-07T08:53:48.687Z,20.30
2022-08-07T08:56:47.173Z,20.40
2022-08-07T08:59:51.916Z,20.40
2022-08-07T09:02:52.581Z,20.50
2022-08-07T09:05:46.702Z,20.60
2022-08-07T09:08:42.542Z,20.80
2022-08-07T09:11:50.612Z,20.80
2022-08-07T09:14:58.735Z,21.00
2022-08-07T09:17:58.896Z,21.10
2022-08-07T09:21:01.384Z,21.30
2022-08-07T09:24:31.665Z,21.40
2022-08-07T09:27:16.543Z,21.50
2022-08-07T09:30:08.681Z,21.70
2022-08-07T09:33:16.611Z,21.70
2022-08-07T09:36:16.744Z,21.90
2022-08-07T09:39:54.900Z,22.00
2022-08-07T09:42:47.793Z,22.10
2022-08-07T09:47:24.370Z,22.00
2022-08-07T09:50:01.739Z,22.10
2022-08-07T09:52:34.093Z,22.50
2022-08-07T09:55:29.505Z,22.70
2022-08-07T09:58:51.067Z,22.70
2022-08-07T10:02:03.171Z,22.80
2022-08-07T10:05:58.900Z,22.80
2022-08-07T10:09:01.689Z,23.00
2022-08-07T10:12:10.528Z,23.30
2022-08-07T10:15:19.676Z,23.50
2022-08-07T10:18:45.740Z,23.30
2022-08-07T10:22:12.086Z,23.00
2022-08-07T10:25:22.614Z,23.20
2022-08-07T10:28:43.481Z,23.60
2022-08-07T10:31:54.357Z,23.90
2022-08-07T10:34:54.621Z,24.00
2022-08-07T10:38:15.472Z,24.30
2022-08-07T10:41:10.400Z,23.80
2022-08-07T10:44:07.466Z,23.70
2022-08-07T10:47:02.924Z,23.40
2022-08-07T10:49:59.250Z,23.10
2022-08-07T10:52:54.171Z,23.50
2022-08-07T10:55:50.280Z,23.70
2022-08-07T10:59:07.750Z,24.10
2022-08-07T11:02:11.898Z,24.00
2022-08-07T11:05:11.217Z,24.00
2022-08-07T11:08:03.844Z,24.00
2022-08-07T11:10:59.782Z,24.10
2022-08-07T11:14:46.451Z,24.40
2022-08-07T11:17:07.368Z,24.50
2022-08-07T11:20:03.371Z,24.70
2022-08-07T11:22:56.425Z,25.10
2022-08-07T11:25:50.471Z,25.30
2022-08-07T11:28:43.442Z,24.70
2022-08-07T11:31:47.527Z,24.30
2022-08-07T11:34:43.041Z,24.50
2022-08-07T11:38:08.693Z,25.10
2022-08-07T11:41:00.016Z,25.40
2022-08-07T11:44:12.175Z,25.60
2022-08-07T11:47:08.532Z,25.60
2022-08-07T11:50:31.993Z,25.70
2022-08-07T11:53:35.264Z,25.70
2022-08-07T11:56:37.541Z,26.10
2022-08-07T12:00:10.820Z,26.10
2022-08-07T12:03:45.240Z,25.20
2022-08-07T12:06:51.573Z,24.20
2022-08-07T12:09:50.474Z,24.00
2022-08-07T12:12:41.520Z,24.30
2022-08-07T12:15:46.013Z,24.00
2022-08-07T12:18:45.300Z,24.50
2022-08-07T12:21:55.615Z,24.90
2022-08-07T12:26:00.944Z,24.50
2022-08-07T12:28:30.956Z,24.60
2022-08-07T12:31:25.557Z,25.10
2022-08-07T12:34:36.904Z,25.30
2022-08-07T12:37:28.482Z,25.00
2022-08-07T12:40:46.414Z,25.30
2022-08-07T12:44:04.150Z,25.80
2022-08-07T12:46:56.232Z,26.00
2022-08-07T12:49:53.371Z,26.10
2022-08-07T12:52:53.083Z,25.50
2022-08-07T12:56:02.461Z,25.10
2022-08-07T12:58:53.217Z,24.90
2022-08-07T13:02:10.169Z,24.50
2022-08-07T13:05:14.746Z,24.30
2022-08-07T13:08:35.008Z,23.80
2022-08-07T13:12:02.780Z,23.80
2022-08-07T13:14:55.314Z,23.90
2022-08-07T13:17:49.617Z,24.30
2022-08-07T13:20:51.086Z,24.30
2022-08-07T13:24:01.117Z,24.40
2022-08-07T13:26:58.664Z,24.40
2022-08-07T13:29:57.245Z,24.40
2022-08-07T13:32:52.879Z,24.50
2022-08-07T13:35:59.745Z,24.60
2022-08-07T13:39:13.146Z,25.20
2022-08-07T13:42:14.720Z,25.30
2022-08-07T13:46:07.143Z,24.90
2022-08-07T13:48:20.874Z,24.50
2022-08-07T13:51:28.310Z,24.20
2022-08-07T13:54:33.623Z,24.50
2022-08-07T13:57:37.662Z,25.00
2022-08-07T14:00:50.429Z,25.40
2022-08-07T14:04:09.617Z,25.90
2022-08-07T14:06:50.503Z,26.10
2022-08-07T14:10:02.375Z,26.00
2022-08-07T14:12:55.779Z,26.30
2022-08-07T14:15:45.109Z,26.80
2022-08-07T14:18:42.583Z,26.80
2022-08-07T14:22:04.222Z,26.20
2022-08-07T14:24:46.637Z,26.10
2022-08-07T14:28:12.342Z,26.60
2022-08-07T14:30:52.313Z,26.10
2022-08-07T14:33:44.936Z,26.20
2022-08-07T14:36:34.540Z,26.10
2022-08-07T14:40:17.169Z,25.80
2022-08-07T14:42:31.376Z,25.50
2022-08-07T14:48:32.580Z,24.90
2022-08-07T14:51:23.251Z,24.80
2022-08-07T15:00:35.609Z,24.80
2022-08-07T15:03:51.361Z,24.60
2022-08-07T15:06:37.811Z,24.40
2022-08-07T15:09:59.718Z,24.40
2022-08-07T15:12:42.079Z,24.30
2022-08-07T15:15:52.451Z,24.20
2022-08-07T15:18:45.897Z,24.10
2022-08-07T15:21:43.895Z,24.50
2022-08-07T15:25:15.255Z,24.00
2022-08-07T15:28:32.930Z,24.00
2022-08-07T15:31:05.280Z,24.00
2022-08-07T15:33:59.724Z,23.90
2022-08-07T15:37:02.676Z,24.00
2022-08-07T15:39:57.274Z,24.00
2022-08-07T15:42:53.868Z,24.70
2022-08-07T15:45:57.651Z,25.40
2022-08-07T15:49:04.000Z,25.80
2022-08-07T15:54:47.791Z,25.90
2022-08-07T15:57:47.527Z,26.20
2022-08-07T16:00:39.758Z,26.30
2022-08-07T16:03:47.370Z,26.70
2022-08-07T16:06:39.413Z,26.80
2022-08-07T16:09:41.216Z,26.70
2022-08-07T16:12:39.158Z,26.80
2022-08-07T16:15:55.466Z,26.60
2022-08-07T16:18:59.124Z,27.00
2022-08-07T16:22:03.595Z,27.10
2022-08-07T16:25:00.600Z,27.10
2022-08-07T16:27:57.327Z,27.20
2022-08-07T16:30:55.400Z,27.20
2022-08-07T16:34:01.373Z,26.90
2022-08-07T16:38:02.919Z,27.10
2022-08-07T16:41:11.952Z,27.40
2022-08-07T16:44:47.486Z,27.10
2022-08-07T16:48:28.446Z,27.50
2022-08-07T16:51:52.042Z,27.70
2022-08-07T16:54:55.384Z,27.60
2022-08-07T16:58:01.482Z,27.60
2022-08-07T17:01:15.708Z,27.60
2022-08-07T17:04:12.257Z,27.70
2022-08-07T17:07:10.027Z,27.90
2022-08-07T17:10:08.731Z,28.20
2022-08-07T17:13:03.502Z,28.10
2022-08-07T17:15:59.455Z,28.00
2022-08-07T17:19:01.815Z,28.00
2022-08-07T17:21:52.303Z,27.90
2022-08-07T17:24:56.124Z,28.10
2022-08-07T17:27:58.111Z,28.10
2022-08-07T17:30:58.256Z,28.00
2022-08-07T17:34:15.256Z,27.90
2022-08-07T17:37:09.487Z,27.70
2022-08-07T17:40:08.182Z,27.50
2022-08-07T17:43:18.062Z,27.40
2022-08-07T17:46:16.241Z,26.90
2022-08-07T17:49:09.579Z,26.70
2022-08-07T17:52:00.352Z,26.10
2022-08-07T17:54:54.291Z,26.00
2022-08-07T17:57:58.822Z,26.00
2022-08-07T18:00:55.887Z,25.80
2022-08-07T18:04:04.158Z,25.70
2022-08-07T18:07:20.439Z,25.50
2022-08-07T18:10:32.370Z,25.40
2022-08-07T18:13:40.662Z,25.30
2022-08-07T18:16:34.166Z,25.20
2022-08-07T18:21:08.595Z,25.00
2022-08-07T18:22:37.721Z,25.00
2022-08-07T18:25:40.966Z,24.70
2022-08-07T18:28:58.140Z,24.60
2022-08-07T18:31:59.413Z,24.50
2022-08-07T18:35:09.889Z,24.30
2022-08-07T18:38:54.868Z,24.30
2022-08-07T18:41:45.030Z,24.10
2022-08-07T18:45:44.168Z,24.10
2022-08-07T18:48:02.650Z,24.10
2022-08-07T18:50:59.638Z,24.00
2022-08-07T18:54:27.677Z,23.90
2022-08-07T18:57:40.066Z,23.70
2022-08-07T19:00:53.761Z,23.60
2022-08-07T19:03:52.127Z,23.40
2022-08-07T19:06:49.345Z,23.30
2022-08-07T19:09:59.039Z,23.20
2022-08-07T19:12:59.298Z,23.00
2022-08-07T19:16:43.633Z,22.90
2022-08-07T19:19:19.744Z,22.70
2022-08-07T19:22:30.990Z,22.60
2022-08-07T19:26:23.633Z,22.60
2022-08-07T19:30:53.876Z,22.50
2022-08-07T19:32:08.274Z,22.30
2022-08-07T19:34:51.788Z,22.30
2022-08-07T19:37:56.824Z,22.20
2022-08-07T19:40:49.959Z,22.10
2022-08-07T19:43:48.730Z,22.60
2022-08-07T19:46:55.406Z,21.90
2022-08-07T19:49:57.233Z,21.90
2022-08-07T19:52:46.805Z,21.80
2022-08-07T19:55:56.966Z,21.60
2022-08-07T19:58:53.230Z,21.60
2022-08-07T20:01:56.090Z,21.60
2022-08-07T20:04:49.491Z,21.50
2022-08-07T20:07:47.219Z,21.30
2022-08-07T20:10:54.780Z,21.30
2022-08-07T20:13:45.852Z,21.20
2022-08-07T20:16:36.834Z,21.20
2022-08-07T20:19:28.726Z,21.10
2022-08-07T20:22:36.016Z,21.10
2022-08-07T20:25:25.012Z,21.00
2022-08-07T20:28:17.600Z,20.90
2022-08-07T20:31:21.255Z,20.90
2022-08-07T20:34:10.044Z,20.80
2022-08-07T20:36:59.168Z,20.80
2022-08-07T20:40:02.693Z,20.80
2022-08-07T20:42:56.447Z,20.80
2022-08-07T20:46:25.920Z,20.70
2022-08-07T20:49:54.678Z,20.60
2022-08-07T20:52:14.064Z,20.60
2022-08-07T20:55:05.491Z,20.50
2022-08-07T20:58:02.437Z,20.50
2022-08-07T21:00:57.738Z,20.40
2022-08-07T21:04:13.075Z,20.30
2022-08-07T21:06:58.916Z,20.30
2022-08-07T21:10:00.225Z,20.30
2022-08-07T21:12:49.308Z,20.20
2022-08-07T21:15:48.203Z,20.10
2022-08-07T21:18:50.520Z,20.10
2022-08-07T21:21:56.772Z,20.00
2022-08-07T21:24:55.887Z,20.00
2022-08-07T21:28:02.066Z,20.00
2022-08-07T21:30:57.574Z,19.80
2022-08-07T21:33:51.418Z,19.80
2022-08-07T21:36:50.355Z,19.80
2022-08-07T21:39:54.906Z,19.70
2022-08-07T21:42:53.047Z,19.70
2022-08-07T21:46:09.178Z,19.60
2022-08-07T21:49:00.376Z,19.60
2022-08-07T21:52:04.084Z,19.50
2022-08-07T21:55:00.742Z,19.50
2022-08-07T21:58:03.182Z,19.50
2022-08-07T22:00:55.122Z,19.50
2022-08-07T22:03:48.654Z,19.40
2022-08-07T22:06:44.956Z,19.30
2022-08-07T22:09:53.804Z,19.30
2022-08-07T22:12:46.780Z,19.30
2022-08-07T22:16:42.598Z,19.20
2022-08-07T22:18:59.188Z,19.20
2022-08-07T22:22:10.875Z,19.10
2022-08-07T22:25:13.859Z,19.00
2022-08-07T22:28:31.847Z,19.00
2022-08-07T22:31:56.075Z,18.90
2022-08-07T22:34:53.021Z,18.90
2022-08-07T22:38:01.716Z,18.90
2022-08-07T22:40:57.755Z,18.80
2022-08-07T22:43:50.653Z,18.80
2022-08-07T22:47:19.140Z,18.70
2022-08-07T22:50:34.763Z,18.70
2022-08-07T22:54:07.946Z,18.60
2022-08-07T22:57:03.899Z,18.50
2022-08-07T22:59:59.748Z,18.50
2022-08-07T23:03:03.711Z,18.50
2022-08-07T23:06:14.667Z,18.40
2022-08-07T23:10:06.415Z,18.30
2022-08-07T23:12:57.672Z,18.30
2022-08-07T23:16:05.402Z,18.30
2022-08-07T23:19:16.670Z,18.20
2022-08-07T23:22:24.890Z,18.20
2022-08-07T23:25:28.212Z,18.10
2022-08-07T23:28:53.375Z,18.10
2022-08-07T23:34:19.670Z,18.00
2022-08-07T23:35:13.369Z,18.10
2022-08-07T23:38:43.556Z,18.00
2022-08-07T23:42:04.299Z,17.80
2022-08-07T23:45:33.535Z,17.80
2022-08-07T23:48:34.777Z,17.90
2022-08-07T23:53:06.749Z,17.90
2022-08-07T23:54:44.566Z,17.90
2022-08-07T23:57:42.285Z,17.80
